createdAt,value
2023-05-13T00:00:41.140Z,60.84
2023-05-13T00:03:03.748Z,60.70
2023-05-13T00:05:16.432Z,61.19
2023-05-13T00:07:28.950Z,61.10
2023-05-13T00:09:38.352Z,61.13
2023-05-13T00:11:45.283Z,61.32
2023-05-13T00:13:56.098Z,61.36
2023-05-13T00:16:08.452Z,61.60
2023-05-13T00:18:23.714Z,61.59
2023-05-13T00:21:05.041Z,61.91
2023-05-13T00:23:10.499Z,61.86
2023-05-13T00:25:14.819Z,62.02
2023-05-13T00:27:25.742Z,61.99
2023-05-13T00:29:33.771Z,62.07
2023-05-13T00:31:49.409Z,62.11
2023-05-13T00:33:54.716Z,62.08
2023-05-13T00:38:28.316Z,61.97
2023-05-13T00:40:35.829Z,62.07
2023-05-13T00:42:42.622Z,61.93
2023-05-13T00:44:48.463Z,62.03
2023-05-13T00:47:01.268Z,61.89
2023-05-13T00:49:11.632Z,61.99
2023-05-13T00:51:36.515Z,62.23
2023-05-13T00:53:57.035Z,62.05
2023-05-13T00:56:02.434Z,62.17
2023-05-13T00:58:08.285Z,62.20
2023-05-13T01:00:55.406Z,62.04
2023-05-13T01:03:34.617Z,62.21
2023-05-13T01:05:59.170Z,62.08
2023-05-13T01:08:07.852Z,62.23
2023-05-13T01:10:26.347Z,62.32
2023-05-13T01:12:35.508Z,62.18
2023-05-13T01:14:49.132Z,62.14
2023-05-13T01:16:59.657Z,62.27
2023-05-13T01:19:38.846Z,62.26
2023-05-13T01:21:52.019Z,62.38
2023-05-13T01:24:04.334Z,62.60
2023-05-13T01:26:10.107Z,62.59
2023-05-13T01:28:13.712Z,62.70
2023-05-13T01:30:25.488Z,62.85
2023-05-13T01:32:30.486Z,62.66
2023-05-13T01:34:36.821Z,62.68
2023-05-13T01:36:46.102Z,62.81
2023-05-13T01:38:51.341Z,62.61
2023-05-13T01:40:56.695Z,62.70
2023-05-13T01:43:05.079Z,62.69
2023-05-13T01:45:11.160Z,62.77
2023-05-13T01:47:16.385Z,62.79
2023-05-13T01:49:19.994Z,62.66
2023-05-13T01:51:27.725Z,62.94
2023-05-13T01:53:35.485Z,62.93
2023-05-13T01:55:39.801Z,62.86
2023-05-13T01:57:54.361Z,62.75
2023-05-13T02:00:02.145Z,62.78
2023-05-13T02:02:08.772Z,62.72
2023-05-13T02:04:17.709Z,62.82
2023-05-13T02:06:21.102Z,62.69
2023-05-13T02:08:33.570Z,62.60
2023-05-13T02:10:39.386Z,62.79
2023-05-13T02:12:43.335Z,62.87
2023-05-13T02:14:49.131Z,62.95
2023-05-13T02:16:56.294Z,63.16
2023-05-13T02:19:03.030Z,63.05
2023-05-13T02:21:14.642Z,63.03
2023-05-13T02:23:17.810Z,63.13
2023-05-13T02:25:22.235Z,63.43
2023-05-13T02:27:31.927Z,63.42
2023-05-13T02:29:34.897Z,63.19
2023-05-13T02:31:43.479Z,63.11
2023-05-13T02:33:47.899Z,63.17
2023-05-13T02:35:54.066Z,63.46
2023-05-13T02:37:59.419Z,63.70
2023-05-13T02:40:05.424Z,63.94
2023-05-13T02:42:15.550Z,63.94
2023-05-13T02:44:23.032Z,63.97
2023-05-13T02:46:31.157Z,63.60
2023-05-13T02:48:34.760Z,63.25
2023-05-13T02:50:38.696Z,63.08
2023-05-13T02:53:07.473Z,63.11
2023-05-13T02:55:12.636Z,62.96
2023-05-13T02:57:24.516Z,62.90
2023-05-13T02:59:31.639Z,62.84
2023-05-13T03:01:36.735Z,63.18
2023-05-13T03:03:49.491Z,63.18
2023-05-13T03:05:53.753Z,63.21
2023-05-13T03:08:02.772Z,63.42
2023-05-13T03:10:10.318Z,63.59
2023-05-13T03:12:18.968Z,63.69
2023-05-13T03:14:26.375Z,63.67
2023-05-13T03:16:31.336Z,63.52
2023-05-13T03:18:51.763Z,63.87
2023-05-13T03:21:00.756Z,63.81
2023-05-13T03:23:13.456Z,63.91
2023-05-13T03:25:21.002Z,63.94
2023-05-13T03:27:27.573Z,64.45
2023-05-13T03:29:37.158Z,64.28
2023-05-13T03:32:00.387Z,64.44
2023-05-13T03:34:04.830Z,64.57
2023-05-13T03:36:13.366Z,64.69
2023-05-13T03:38:18.752Z,64.85
2023-05-13T03:40:34.305Z,64.67
2023-05-13T03:42:39.449Z,64.17
2023-05-13T03:44:52.449Z,64.16
2023-05-13T03:46:57.114Z,64.13
2023-05-13T03:49:02.412Z,64.03
2023-05-13T03:51:09.175Z,64.12
2023-05-13T03:53:20.604Z,64.70
2023-05-13T03:55:27.234Z,64.90
2023-05-13T03:57:50.306Z,64.78
2023-05-13T03:59:59.828Z,64.58
2023-05-13T04:02:03.396Z,64.49
2023-05-13T04:04:10.554Z,64.55
2023-05-13T04:06:17.912Z,64.79
2023-05-13T04:08:29.015Z,64.62
2023-05-13T04:10:44.307Z,64.74
2023-05-13T04:12:46.848Z,64.77
2023-05-13T04:14:49.628Z,64.80
2023-05-13T04:16:54.765Z,65.05
2023-05-13T04:19:03.093Z,65.00
2023-05-13T04:21:10.937Z,64.97
2023-05-13T04:23:37.064Z,64.83
2023-05-13T04:25:41.137Z,64.85
2023-05-13T04:27:44.507Z,64.94
2023-05-13T04:29:52.632Z,64.82
2023-05-13T04:31:58.501Z,64.81
2023-05-13T04:34:02.481Z,64.91
2023-05-13T04:36:29.936Z,65.03
2023-05-13T04:38:34.763Z,65.07
2023-05-13T04:40:50.738Z,64.81
2023-05-13T04:43:01.336Z,64.90
2023-05-13T04:45:15.889Z,65.06
2023-05-13T04:47:28.054Z,65.06
2023-05-13T04:49:36.749Z,65.00
2023-05-13T04:51:42.363Z,64.94
2023-05-13T04:53:55.884Z,64.87
2023-05-13T04:56:06.478Z,64.81
2023-05-13T04:58:12.300Z,64.90
2023-05-13T05:00:17.701Z,64.63
2023-05-13T05:02:24.308Z,64.81
2023-05-13T05:04:28.077Z,64.69
2023-05-13T05:06:37.415Z,65.00
2023-05-13T05:08:44.649Z,64.87
2023-05-13T05:10:51.518Z,64.91
2023-05-13T05:13:00.833Z,65.18
2023-05-13T05:15:11.361Z,64.94
2023-05-13T05:17:19.539Z,64.68
2023-05-13T05:19:25.600Z,64.65
2023-05-13T05:21:31.888Z,64.55
2023-05-13T05:23:39.538Z,64.68
2023-05-13T05:25:43.873Z,64.58
2023-05-13T05:27:49.846Z,64.66
2023-05-13T05:30:02.180Z,64.64
2023-05-13T05:32:07.753Z,64.62
2023-05-13T05:34:15.857Z,64.55
2023-05-13T05:36:28.312Z,64.53
2023-05-13T05:39:14.473Z,64.36
2023-05-13T05:41:19.556Z,64.49
2023-05-13T05:43:22.952Z,64.46
2023-05-13T05:45:29.948Z,64.40
2023-05-13T05:47:33.068Z,64.23
2023-05-13T05:49:36.739Z,64.14
2023-05-13T05:51:43.876Z,63.93
2023-05-13T05:53:50.074Z,64.00
2023-05-13T05:55:55.617Z,63.75
2023-05-13T05:58:13.732Z,63.84
2023-05-13T06:00:19.477Z,64.03
2023-05-13T06:02:22.381Z,63.77
2023-05-13T06:04:28.514Z,63.59
2023-05-13T06:06:34.078Z,63.43
2023-05-13T06:08:36.902Z,63.61
2023-05-13T06:10:41.942Z,63.47
2023-05-13T06:12:44.995Z,63.30
2023-05-13T06:14:47.694Z,63.05
2023-05-13T06:16:53.560Z,62.72
2023-05-13T06:18:58.002Z,62.69
2023-05-13T06:21:01.148Z,62.80
2023-05-13T06:23:04.595Z,62.33
2023-05-13T06:25:07.859Z,62.25
2023-05-13T06:27:15.117Z,62.03
2023-05-13T06:29:19.430Z,61.90
2023-05-13T06:31:24.700Z,61.63
2023-05-13T06:33:31.082Z,61.53
2023-05-13T06:35:34.836Z,61.13
2023-05-13T06:37:43.797Z,60.90
2023-05-13T06:39:48.580Z,60.74
2023-05-13T06:41:57.697Z,60.61
2023-05-13T06:44:24.006Z,60.76
2023-05-13T06:46:33.930Z,60.61
2023-05-13T06:48:55.424Z,60.55
2023-05-13T06:51:06.714Z,60.62
2023-05-13T06:53:13.377Z,60.59
2023-05-13T06:55:19.829Z,59.39
2023-05-13T06:57:29.640Z,58.97
2023-05-13T06:59:40.084Z,58.80
2023-05-13T07:01:46.074Z,58.63
2023-05-13T07:03:49.988Z,58.60
2023-05-13T07:05:53.736Z,58.31
2023-05-13T07:07:58.000Z,57.88
2023-05-13T07:10:04.582Z,57.69
2023-05-13T07:12:10.881Z,56.87
2023-05-13T07:14:16.164Z,57.17
2023-05-13T07:16:20.714Z,56.84
2023-05-13T07:18:23.947Z,56.70
2023-05-13T07:20:27.577Z,56.37
2023-05-13T07:22:32.236Z,56.54
2023-05-13T07:24:36.567Z,56.59
2023-05-13T07:26:41.769Z,56.27
2023-05-13T07:28:45.504Z,56.17
2023-05-13T07:31:09.014Z,55.54
2023-05-13T07:33:14.986Z,55.73
2023-05-13T07:35:19.051Z,55.72
2023-05-13T07:37:21.801Z,55.11
2023-05-13T07:39:25.681Z,55.27
2023-05-13T07:41:32.655Z,55.08
2023-05-13T07:43:35.836Z,54.48
2023-05-13T07:45:39.627Z,54.27
2023-05-13T07:47:44.722Z,54.46
2023-05-13T07:49:51.099Z,54.49
2023-05-13T07:51:53.946Z,54.09
2023-05-13T07:54:03.518Z,53.49
2023-05-13T07:56:11.356Z,53.55
2023-05-13T07:58:19.769Z,53.66
2023-05-13T08:00:25.053Z,53.62
2023-05-13T08:02:27.843Z,53.86
2023-05-13T08:04:33.042Z,53.58
2023-05-13T08:06:41.944Z,53.59
2023-05-13T08:08:49.318Z,53.36
2023-05-13T08:10:55.295Z,53.56
2023-05-13T08:12:58.205Z,53.82
2023-05-13T08:15:06.153Z,53.57
2023-05-13T08:17:10.598Z,53.32
2023-05-13T08:19:15.866Z,53.09
2023-05-13T08:21:19.405Z,53.23
2023-05-13T08:23:40.333Z,53.44
2023-05-13T08:25:47.093Z,53.60
2023-05-13T08:27:51.044Z,53.79
2023-05-13T08:29:55.750Z,53.38
2023-05-13T08:32:00.408Z,53.37
2023-05-13T08:34:05.983Z,53.46
2023-05-13T08:36:09.635Z,53.13
2023-05-13T08:38:13.476Z,53.30
2023-05-13T08:40:19.537Z,53.50
2023-05-13T08:42:25.839Z,53.68
2023-05-13T08:44:32.558Z,53.43
2023-05-13T08:46:40.310Z,53.57
2023-05-13T08:48:47.458Z,53.67
2023-05-13T08:50:53.500Z,53.80
2023-05-13T08:53:01.008Z,53.53
2023-05-13T08:55:12.933Z,53.45
2023-05-13T08:57:19.963Z,53.59
2023-05-13T08:59:29.489Z,53.35
2023-05-13T09:01:34.000Z,53.09
2023-05-13T09:03:50.612Z,53.05
2023-05-13T09:05:55.103Z,52.81
2023-05-13T09:07:59.085Z,52.64
2023-05-13T09:10:01.963Z,52.75
2023-05-13T09:12:07.695Z,52.65
2023-05-13T09:14:12.378Z,52.35
2023-05-13T09:16:16.401Z,52.11
2023-05-13T09:18:20.039Z,51.99
2023-05-13T09:20:27.053Z,52.20
2023-05-13T09:22:34.142Z,52.42
2023-05-13T09:24:40.414Z,52.55
2023-05-13T09:26:51.357Z,52.13
2023-05-13T09:29:27.995Z,51.68
2023-05-13T09:31:34.499Z,51.23
2023-05-13T09:33:37.294Z,51.63
2023-05-13T09:35:55.311Z,51.44
2023-05-13T09:37:59.026Z,51.55
2023-05-13T09:40:04.565Z,51.36
2023-05-13T09:42:16.976Z,51.09
2023-05-13T09:44:21.702Z,51.03
2023-05-13T09:46:26.917Z,50.82
2023-05-13T09:48:34.536Z,50.88
2023-05-13T09:50:50.485Z,50.97
2023-05-13T09:52:53.747Z,50.63
2023-05-13T09:54:58.808Z,50.50
2023-05-13T09:57:02.508Z,50.62
2023-05-13T09:59:06.289Z,50.11
2023-05-13T10:01:09.462Z,49.82
2023-05-13T10:03:13.870Z,49.79
2023-05-13T10:05:17.884Z,49.73
2023-05-13T10:07:25.828Z,48.69
2023-05-13T10:09:35.478Z,48.14
2023-05-13T10:11:38.703Z,48.84
2023-05-13T10:13:43.954Z,48.95
2023-05-13T10:15:57.154Z,49.24
2023-05-13T10:18:07.211Z,48.56
2023-05-13T10:20:15.120Z,48.71
2023-05-13T10:22:54.890Z,49.12
2023-05-13T10:25:02.988Z,49.01
2023-05-13T10:27:06.705Z,48.96
2023-05-13T10:29:15.494Z,48.66
2023-05-13T10:31:18.825Z,48.66
2023-05-13T10:33:25.275Z,48.75
2023-05-13T10:35:34.582Z,48.60
2023-05-13T10:38:08.872Z,48.58
2023-05-13T10:40:25.823Z,48.57
2023-05-13T10:42:38.494Z,48.30
2023-05-13T10:44:41.343Z,48.02
2023-05-13T10:46:49.272Z,48.16
2023-05-13T10:48:58.441Z,47.62
2023-05-13T10:51:07.979Z,47.75
2023-05-13T10:53:23.173Z,47.86
2023-05-13T10:55:27.849Z,47.63
2023-05-13T10:57:37.902Z,47.44
2023-05-13T11:00:16.579Z,46.93
2023-05-13T11:02:25.297Z,46.39
2023-05-13T11:04:29.032Z,46.62
2023-05-13T11:06:38.694Z,46.26
2023-05-13T11:08:51.424Z,46.28
2023-05-13T11:10:56.661Z,45.79
2023-05-13T11:13:25.276Z,45.77
2023-05-13T11:15:51.101Z,45.65
2023-05-13T11:17:57.846Z,45.51
2023-05-13T11:20:02.525Z,45.59
2023-05-13T11:22:10.840Z,45.44
2023-05-13T11:24:19.257Z,44.98
2023-05-13T11:26:22.553Z,44.23
2023-05-13T11:29:00.612Z,44.53
2023-05-13T11:31:17.312Z,44.33
2023-05-13T11:33:21.374Z,44.03
2023-05-13T11:35:25.525Z,44.58
2023-05-13T11:37:31.161Z,44.93
2023-05-13T11:39:34.068Z,44.77
2023-05-13T11:41:45.942Z,44.72
2023-05-13T11:43:50.095Z,44.99
2023-05-13T11:45:54.272Z,44.56
2023-05-13T11:47:58.371Z,44.58
2023-05-13T11:50:01.938Z,44.85
2023-05-13T11:52:10.805Z,44.99
2023-05-13T11:54:15.362Z,44.79
2023-05-13T11:56:18.592Z,44.28
2023-05-13T11:58:22.358Z,44.57
2023-05-13T12:00:37.344Z,44.65
2023-05-13T12:02:40.697Z,44.71
2023-05-13T12:04:46.876Z,44.34
2023-05-13T12:09:12.189Z,44.02
2023-05-13T12:11:16.394Z,43.99
2023-05-13T12:13:22.359Z,44.28
2023-05-13T12:15:30.760Z,43.92
2023-05-13T12:17:34.460Z,43.75
2023-05-13T12:19:39.110Z,43.96
2023-05-13T12:21:42.541Z,44.19
2023-05-13T12:23:47.175Z,44.40
2023-05-13T12:25:54.873Z,44.38
2023-05-13T12:28:02.056Z,44.48
2023-05-13T12:30:05.465Z,44.45
2023-05-13T12:32:11.983Z,44.32
2023-05-13T12:34:32.214Z,44.22
2023-05-13T12:36:41.416Z,43.74
2023-05-13T12:39:03.684Z,44.39
2023-05-13T12:41:15.510Z,44.30
2023-05-13T12:43:20.060Z,44.09
2023-05-13T12:45:46.628Z,44.47
2023-05-13T12:48:03.846Z,44.21
2023-05-13T12:50:10.313Z,44.20
2023-05-13T12:52:14.285Z,43.89
2023-05-13T12:56:55.128Z,43.42
2023-05-13T12:58:59.324Z,43.35
2023-05-13T13:01:06.413Z,43.10
2023-05-13T13:03:10.389Z,43.42
2023-05-13T13:05:14.068Z,43.83
2023-05-13T13:07:18.363Z,43.60
2023-05-13T13:09:21.234Z,43.61
2023-05-13T13:11:25.926Z,43.21
2023-05-13T13:13:28.765Z,43.40
2023-05-13T13:15:31.701Z,43.03
2023-05-13T13:17:36.229Z,42.98
2023-05-13T13:19:40.069Z,43.01
2023-05-13T13:21:43.067Z,42.97
2023-05-13T13:23:50.667Z,43.11
2023-05-13T13:25:55.417Z,43.27
2023-05-13T13:27:59.473Z,42.83
2023-05-13T13:30:03.590Z,43.38
2023-05-13T13:32:07.085Z,43.01
2023-05-13T13:34:12.437Z,43.15
2023-05-13T13:36:17.722Z,43.17
2023-05-13T13:38:22.727Z,43.51
2023-05-13T13:40:25.776Z,43.23
2023-05-13T13:42:42.785Z,42.88
2023-05-13T13:44:50.157Z,43.25
2023-05-13T13:46:56.121Z,43.16
2023-05-13T13:49:00.881Z,43.05
2023-05-13T13:51:08.731Z,43.05
2023-05-13T13:53:13.145Z,42.72
2023-05-13T13:55:16.440Z,42.37
2023-05-13T13:57:21.361Z,42.75
2023-05-13T13:59:25.629Z,42.75
2023-05-13T14:01:29.402Z,42.84
2023-05-13T14:03:32.166Z,43.06
2023-05-13T14:05:35.285Z,43.20
2023-05-13T14:07:38.122Z,43.36
2023-05-13T14:09:43.133Z,43.32
2023-05-13T14:11:47.698Z,43.23
2023-05-13T14:14:15.350Z,43.24
2023-05-13T14:16:16.645Z,43.42
2023-05-13T14:18:21.150Z,43.30
2023-05-13T14:20:27.171Z,43.58
2023-05-13T14:22:32.739Z,43.29
2023-05-13T14:24:38.226Z,43.00
2023-05-13T14:26:41.722Z,42.99
2023-05-13T14:28:46.169Z,42.73
2023-05-13T14:30:48.970Z,42.46
2023-05-13T14:32:53.226Z,42.41
2023-05-13T14:34:59.688Z,42.31
2023-05-13T14:37:07.750Z,42.37
2023-05-13T14:39:23.373Z,42.41
2023-05-13T14:41:31.177Z,42.51
2023-05-13T14:43:36.527Z,42.52
2023-05-13T14:45:42.169Z,42.57
2023-05-13T14:47:46.182Z,42.94
2023-05-13T14:49:50.954Z,42.73
2023-05-13T14:51:53.964Z,42.79
2023-05-13T14:54:07.206Z,42.86
2023-05-13T14:56:12.150Z,42.83
2023-05-13T14:58:30.074Z,42.75
2023-05-13T15:00:33.975Z,42.52
2023-05-13T15:02:38.115Z,42.44
2023-05-13T15:04:41.845Z,42.25
2023-05-13T15:06:46.433Z,42.46
2023-05-13T15:08:50.501Z,42.09
2023-05-13T15:10:53.966Z,42.37
2023-05-13T15:12:56.980Z,42.23
2023-05-13T15:15:00.252Z,42.56
2023-05-13T15:17:07.218Z,42.35
2023-05-13T15:19:11.323Z,42.34
2023-05-13T15:21:18.678Z,42.40
2023-05-13T15:23:21.715Z,42.59
2023-05-13T15:25:25.991Z,42.75
2023-05-13T15:27:29.118Z,42.55
2023-05-13T15:29:34.149Z,42.50
2023-05-13T15:31:38.399Z,42.56
2023-05-13T15:33:45.084Z,42.43
2023-05-13T15:35:50.164Z,42.08
2023-05-13T15:37:54.066Z,41.68
2023-05-13T15:39:58.068Z,41.52
2023-05-13T15:42:02.226Z,40.86
2023-05-13T15:44:09.859Z,40.69
2023-05-13T15:46:14.245Z,40.51
2023-05-13T15:48:18.353Z,40.76
2023-05-13T15:50:21.780Z,40.08
2023-05-13T15:52:27.662Z,40.12
2023-05-13T15:54:30.368Z,39.89
2023-05-13T15:56:33.299Z,39.67
2023-05-13T15:58:36.194Z,39.49
2023-05-13T16:00:39.856Z,39.52
2023-05-13T16:02:44.170Z,39.89
2023-05-13T16:04:51.537Z,39.97
2023-05-13T16:06:56.404Z,40.23
2023-05-13T16:09:02.370Z,40.60
2023-05-13T16:11:06.980Z,40.27
2023-05-13T16:13:12.205Z,40.39
2023-05-13T16:15:15.898Z,40.52
2023-05-13T16:17:19.777Z,40.64
2023-05-13T16:19:22.855Z,40.51
2023-05-13T16:21:26.143Z,40.36
2023-05-13T16:23:28.866Z,40.16
2023-05-13T16:25:31.605Z,40.24
2023-05-13T16:27:35.219Z,40.02
2023-05-13T16:29:39.336Z,40.07
2023-05-13T16:31:43.205Z,40.36
2023-05-13T16:33:47.576Z,40.37
2023-05-13T16:35:54.093Z,40.29
2023-05-13T16:37:57.002Z,40.41
2023-05-13T16:40:02.753Z,40.74
2023-05-13T16:42:05.618Z,40.73
2023-05-13T16:44:09.941Z,40.86
2023-05-13T16:46:14.767Z,41.06
2023-05-13T16:48:19.038Z,40.85
2023-05-13T16:50:23.570Z,41.22
2023-05-13T16:52:28.962Z,41.87
2023-05-13T16:54:33.871Z,42.17
2023-05-13T16:56:41.746Z,42.02
2023-05-13T16:58:45.576Z,41.79
2023-05-13T17:00:49.697Z,41.65
2023-05-13T17:02:53.394Z,41.94
2023-05-13T17:04:56.627Z,42.35
2023-05-13T17:06:59.776Z,42.13
2023-05-13T17:09:02.513Z,41.92
2023-05-13T17:11:07.749Z,41.61
2023-05-13T17:13:11.865Z,40.61
2023-05-13T17:15:14.895Z,39.94
2023-05-13T17:17:17.949Z,39.43
2023-05-13T17:19:25.726Z,39.18
2023-05-13T17:21:29.951Z,39.37
2023-05-13T17:23:33.548Z,39.75
2023-05-13T17:25:39.826Z,40.28
2023-05-13T17:27:44.927Z,40.39
2023-05-13T17:29:57.922Z,41.01
2023-05-13T17:32:11.486Z,41.46
2023-05-13T17:34:16.234Z,41.50
2023-05-13T17:36:26.668Z,41.41
2023-05-13T17:38:32.931Z,41.17
2023-05-13T17:40:39.894Z,41.48
2023-05-13T17:42:46.180Z,41.92
2023-05-13T17:44:53.776Z,42.04
2023-05-13T17:46:58.680Z,42.30
2023-05-13T17:49:02.492Z,42.56
2023-05-13T17:51:08.332Z,42.76
2023-05-13T17:53:10.923Z,43.17
2023-05-13T17:55:16.028Z,43.16
2023-05-13T17:57:25.059Z,43.63
2023-05-13T17:59:33.143Z,43.80
2023-05-13T18:01:38.385Z,44.22
2023-05-13T18:03:43.208Z,44.30
2023-05-13T18:05:50.589Z,44.68
2023-05-13T18:07:57.997Z,45.08
2023-05-13T18:10:07.663Z,44.75
2023-05-13T18:12:12.893Z,44.95
2023-05-13T18:14:19.688Z,44.47
2023-05-13T18:16:24.941Z,44.63
2023-05-13T18:18:29.811Z,44.83
2023-05-13T18:20:34.910Z,44.94
2023-05-13T18:22:39.383Z,44.97
2023-05-13T18:24:43.203Z,45.27
2023-05-13T18:26:46.871Z,45.33
2023-05-13T18:29:00.046Z,45.63
2023-05-13T18:31:06.429Z,45.71
2023-05-13T18:33:11.731Z,45.98
2023-05-13T18:35:17.787Z,45.96
2023-05-13T18:37:29.736Z,46.28
2023-05-13T18:39:35.376Z,46.09
2023-05-13T18:41:41.036Z,46.36
2023-05-13T18:43:44.793Z,46.63
2023-05-13T18:45:48.781Z,46.80
2023-05-13T18:47:54.198Z,46.71
2023-05-13T18:50:04.078Z,46.50
2023-05-13T18:52:12.833Z,47.27
2023-05-13T18:54:18.629Z,47.27
2023-05-13T18:56:21.788Z,47.75
2023-05-13T18:58:33.430Z,47.61
2023-05-13T19:00:40.132Z,47.59
2023-05-13T19:02:43.113Z,47.90
2023-05-13T19:04:52.539Z,47.77
2023-05-13T19:06:57.943Z,47.59
2023-05-13T19:09:00.664Z,47.67
2023-05-13T19:11:05.458Z,47.80
2023-05-13T19:13:12.119Z,47.99
2023-05-13T19:15:15.605Z,48.14
2023-05-13T19:17:18.966Z,48.25
2023-05-13T19:19:25.601Z,48.50
2023-05-13T19:21:30.614Z,48.71
2023-05-13T19:23:47.770Z,48.71
2023-05-13T19:25:55.959Z,48.84
2023-05-13T19:28:02.915Z,49.19
2023-05-13T19:30:10.930Z,49.55
2023-05-13T19:32:14.103Z,49.62
2023-05-13T19:34:16.979Z,49.86
2023-05-13T19:36:20.334Z,50.27
2023-05-13T19:38:26.495Z,50.12
2023-05-13T19:40:32.136Z,50.14
2023-05-13T19:42:41.080Z,50.11
2023-05-13T19:44:46.028Z,50.28
2023-05-13T19:46:53.322Z,50.27
2023-05-13T19:49:05.353Z,50.41
2023-05-13T19:51:08.570Z,51.14
2023-05-13T19:53:14.538Z,50.90
2023-05-13T19:55:18.510Z,51.33
2023-05-13T19:57:25.202Z,51.61
2023-05-13T19:59:28.087Z,51.91
2023-05-13T20:01:32.001Z,51.88
2023-05-13T20:03:35.782Z,51.78
2023-05-13T20:05:43.199Z,52.12
2023-05-13T20:07:48.991Z,51.98
2023-05-13T20:09:57.048Z,52.06
2023-05-13T20:12:05.334Z,52.35
2023-05-13T20:14:09.333Z,52.28
2023-05-13T20:16:13.791Z,52.23
2023-05-13T20:18:19.033Z,52.24
2023-05-13T20:20:27.503Z,52.07
2023-05-13T20:22:31.110Z,52.31
2023-05-13T20:24:34.181Z,52.96
2023-05-13T20:26:43.535Z,53.17
2023-05-13T20:28:48.283Z,53.26
2023-05-13T20:30:54.908Z,53.47
2023-05-13T20:32:59.245Z,53.61
2023-05-13T20:35:14.936Z,53.73
2023-05-13T20:37:19.741Z,53.77
2023-05-13T20:39:36.002Z,53.51
2023-05-13T20:41:44.746Z,53.20
2023-05-13T20:43:52.948Z,53.32
2023-05-13T20:46:15.747Z,54.08
2023-05-13T20:48:23.068Z,54.09
2023-05-13T20:50:52.294Z,54.37
2023-05-13T20:53:03.666Z,54.50
2023-05-13T20:55:07.576Z,54.33
2023-05-13T20:57:10.847Z,53.91
2023-05-13T20:59:13.744Z,54.02
2023-05-13T21:01:23.011Z,53.95
2023-05-13T21:03:31.625Z,54.22
2023-05-13T21:05:37.445Z,54.20
2023-05-13T21:07:48.526Z,54.41
2023-05-13T21:09:54.073Z,54.94
2023-05-13T21:12:00.031Z,54.89
2023-05-13T21:14:04.136Z,55.04
2023-05-13T21:16:07.998Z,54.92
2023-05-13T21:18:11.522Z,55.05
2023-05-13T21:20:14.444Z,55.18
2023-05-13T21:22:20.627Z,55.17
2023-05-13T21:24:25.035Z,55.13
2023-05-13T21:26:35.713Z,55.51
2023-05-13T21:28:43.316Z,55.87
2023-05-13T21:30:47.200Z,55.86
2023-05-13T21:32:52.079Z,55.84
2023-05-13T21:35:00.132Z,56.08
2023-05-13T21:37:10.630Z,56.34
2023-05-13T21:39:16.714Z,55.98
2023-05-13T21:41:38.463Z,56.33
2023-05-13T21:43:50.576Z,56.74
2023-05-13T21:45:53.679Z,56.44
2023-05-13T21:48:17.184Z,56.44
2023-05-13T21:50:25.456Z,56.73
2023-05-13T21:52:28.412Z,57.18
2023-05-13T21:54:38.282Z,57.39
2023-05-13T21:56:44.473Z,57.59
2023-05-13T21:58:49.847Z,57.75
2023-05-13T22:00:56.422Z,57.62
2023-05-13T22:03:06.178Z,57.51
2023-05-13T22:05:12.439Z,57.30
2023-05-13T22:07:17.432Z,57.52
2023-05-13T22:09:20.406Z,57.58
2023-05-13T22:11:24.311Z,57.76
2023-05-13T22:13:28.426Z,57.70
2023-05-13T22:15:34.789Z,57.81
2023-05-13T22:17:41.667Z,57.90
2023-05-13T22:19:44.746Z,57.72
2023-05-13T22:21:57.352Z,57.63
2023-05-13T22:24:00.048Z,57.69
2023-05-13T22:26:06.106Z,58.12
2023-05-13T22:28:13.537Z,58.14
2023-05-13T22:31:02.650Z,58.48
2023-05-13T22:32:51.976Z,58.52
2023-05-13T22:34:54.925Z,58.78
2023-05-13T22:37:01.465Z,59.10
2023-05-13T22:39:06.377Z,59.09
2023-05-13T22:41:11.859Z,59.21
2023-05-13T22:43:14.950Z,59.33
2023-05-13T22:45:20.866Z,59.15
2023-05-13T22:47:23.885Z,59.51
2023-05-13T22:49:29.187Z,59.65
2023-05-13T22:51:34.488Z,59.74
2023-05-13T22:53:46.855Z,59.83
2023-05-13T22:55:56.634Z,59.94
2023-05-13T22:58:05.623Z,60.14
2023-05-13T23:00:14.978Z,60.06
2023-05-13T23:02:31.538Z,59.83
2023-05-13T23:04:34.414Z,60.16
2023-05-13T23:06:41.019Z,59.98
2023-05-13T23:08:47.905Z,60.24
2023-05-13T23:10:52.932Z,60.29
2023-05-13T23:12:59.857Z,60.37
2023-05-13T23:15:03.054Z,60.50
2023-05-13T23:19:33.335Z,60.56
2023-05-13T23:21:37.391Z,60.39
2023-05-13T23:23:51.805Z,60.47
2023-05-13T23:26:01.262Z,60.38
2023-05-13T23:28:06.794Z,60.52
2023-05-13T23:30:15.613Z,60.47
2023-05-13T23:32:22.330Z,60.58
2023-05-13T23:34:26.619Z,60.77
2023-05-13T23:36:46.554Z,60.57
2023-05-13T23:38:52.745Z,60.61
2023-05-13T23:41:01.230Z,60.80
2023-05-13T23:43:10.236Z,60.92
2023-05-13T23:45:15.364Z,61.10
2023-05-13T23:47:22.023Z,60.86
2023-05-13T23:49:45.607Z,60.91
2023-05-13T23:51:48.464Z,61.01
2023-05-13T23:53:54.364Z,60.86
2023-05-13T23:56:01.424Z,60.88
